Flight Track Log - Related Links

Times and Time Zones

All times are in EDT time to prevent confusion due to time zone crossing. See the AFL150 flight status page for this flight to view local times or setup timezone preferences in your user account.

Time Position Orientation Groundspeed Altitude Reporting Facility
EDT Latitude Longitude Course Direction KTS MPH feet Rate Location/Type
Mon 06:22:17 AM 55.9770 37.4540 76° East 1,300  Level FlightAware
Mon 06:22:41 AM 55.9820 37.4920 77° East 171 197 2,500 1,959 Climbing FlightAware
Mon 06:23:06 AM 55.9880 37.5290 74° East 195 224 2,900 1,067 Climbing FlightAware
Mon 06:23:26 AM 55.9930 37.5620 75° East 217 250 3,300 1,906 Climbing FlightAware
Mon 06:24:31 AM 56.0120 37.6890 75° East 248 285 5,600 2,100 Climbing FlightAware
Mon 06:24:46 AM 56.0180 37.7180 70° East 256 295 6,100 2,100 Climbing FlightAware
Mon 06:24:51 AM 56.0220 37.7260 48° Northeast 259 298 6,300 2,400 Climbing FlightAware
Mon 06:24:56 AM 56.0260 37.7340 48° Northeast 261 300 6,500 2,400 Climbing FlightAware
Mon 06:25:06 AM 56.0370 37.7430 25° Northeast 268 308 6,900 2,400 Climbing FlightAware
Mon 06:25:16 AM 56.0490 37.7470 11° North 275 316 7,300 2,229 Climbing FlightAware
Mon 06:25:41 AM 56.0790 37.7250 338° Northwest 292 336 8,200 2,400 Climbing FlightAware
Mon 06:25:46 AM 56.0840 37.7160 315° West 295 339 8,500 2,400 Climbing FlightAware
Mon 06:25:56 AM 56.0900 37.6960 298° West 300 345 8,800 2,000 Climbing FlightAware
Mon 06:26:01 AM 56.0930 37.6830 292° West 304 350 9,000 1,600 Climbing FlightAware
Mon 06:26:11 AM 56.0940 37.6580 274° West 309 356 9,200 1,200 Climbing FlightAware
Mon 06:26:26 AM 56.0900 37.6200 259° West 309 356 9,500 960 Climbing FlightAware
Mon 06:26:36 AM 56.0880 37.5960 262° West 308 354 9,600 1,000 Climbing FlightAware
Mon 06:26:56 AM 56.0960 37.5470 286° West 304 350 10,000 982 Climbing FlightAware
Mon 06:27:31 AM 56.1250 37.4760 306° West 309 356 10,500 1,543 Climbing FlightAware
Mon 06:28:06 AM 56.1560 37.4050 308° West 315 362 11,800 1,200 Climbing FlightAware
Mon 06:28:46 AM 56.1920 37.3220 308° West 317 365 12,000 500 Climbing FlightAware
Mon 06:29:06 AM 56.2140 37.2860 318° Northwest 313 360 12,300 1,440 Climbing FlightAware
Mon 06:29:36 AM 56.2490 37.2380 323° Northwest 322 371 13,200 2,123 Climbing FlightAware
Mon 06:30:11 AM 56.2900 37.1820 323° Northwest 323 372 14,600 2,240 Climbing FlightAware
Mon 06:30:51 AM 56.3370 37.1160 322° Northwest 330 380 16,000 1,725 Climbing FlightAware
Mon 06:31:31 AM 56.3870 37.0420 321° Northwest 352 405 16,900 1,440 Climbing FlightAware
Mon 06:32:06 AM 56.4300 36.9760 320° Northwest 365 420 17,800 1,457 Climbing FlightAware
Mon 06:32:41 AM 56.4770 36.9060 321° Northwest 380 437 18,600 1,543 Climbing FlightAware
Mon 06:33:16 AM 56.5230 36.8370 320° Northwest 388 447 19,600 1,120 Climbing FlightAware
Mon 06:33:56 AM 56.5830 36.7480 321° Northwest 417 480 20,000 975 Climbing FlightAware
Mon 06:34:36 AM 56.6430 36.6570 320° Northwest 432 497 20,900 1,543 Climbing FlightAware
Mon 06:35:06 AM 56.6890 36.5870 320° Northwest 433 498 21,800 1,662 Climbing FlightAware
Mon 06:35:41 AM 56.7430 36.5040 320° Northwest 440 506 22,700 1,543 Climbing FlightAware
Mon 06:36:16 AM 56.7990 36.4200 321° Northwest 445 512 23,600 1,520 Climbing FlightAware
Mon 06:36:56 AM 56.8620 36.3230 320° Northwest 447 514 24,600 1,457 Climbing FlightAware
Mon 06:37:26 AM 56.9090 36.2510 320° Northwest 450 518 25,300 1,292 Climbing FlightAware
Mon 06:38:01 AM 56.9650 36.1630 319° Northwest 457 526 26,000 1,114 Climbing FlightAware
Mon 06:38:36 AM 57.0220 36.0760 320° Northwest 463 533 26,600 1,040 Climbing FlightAware
Mon 06:39:16 AM 57.0860 35.9750 319° Northwest 469 540 27,300 1,029 Climbing FlightAware
Mon 06:39:46 AM 57.1370 35.8950 320° Northwest 473 544 27,800 1,015 Climbing FlightAware
Mon 06:40:21 AM 57.1930 35.8080 320° Northwest 476 548 28,400 1,029 Climbing FlightAware
Mon 06:40:56 AM 57.2540 35.7110 319° Northwest 479 551 29,000 1,120 Climbing FlightAware
Mon 06:41:36 AM 57.3210 35.6050 320° Northwest 480 552 29,800 1,120 Climbing FlightAware
Mon 06:42:11 AM 57.3780 35.5130 319° Northwest 480 552 30,400 923 Climbing FlightAware
Mon 06:42:41 AM 57.4310 35.4300 320° Northwest 482 555 30,800 923 Climbing FlightAware
Mon 06:43:16 AM 57.4890 35.3370 319° Northwest 483 556 31,400 1,200 Climbing FlightAware
Mon 06:43:56 AM 57.5550 35.2290 319° Northwest 478 550 32,300 1,268 Climbing FlightAware
Mon 06:44:27 AM 57.6060 35.1470 319° Northwest 473 544 32,900 1,292 Climbing FlightAware
Mon 06:45:01 AM 57.6630 35.0540 319° Northwest 467 537 33,700 892 Climbing FlightAware
Mon 06:45:41 AM 57.7280 34.9500 320° Northwest 466 536 34,000 257 Climbing FlightAware
Mon 06:46:11 AM 57.7800 34.8770 323° Northwest 464 534 34,000  Level FlightAware
Mon 06:46:46 AM 57.8400 34.7960 324° Northwest 459 528 34,000  Level FlightAware
Mon 06:47:26 AM 57.9090 34.7020 324° Northwest 455 524 34,000  Level FlightAware
Mon 06:48:01 AM 57.9680 34.6200 324° Northwest 454 522 34,000  Level FlightAware
Mon 06:48:31 AM 58.0180 34.5500 323° Northwest 454 522 34,000  Level FlightAware
Mon 06:49:06 AM 58.0770 34.4680 324° Northwest 453 521 34,000  Level FlightAware
Mon 06:49:46 AM 58.1440 34.3740 323° Northwest 453 521 34,000  Level FlightAware
Mon 06:50:16 AM 58.1930 34.3020 322° Northwest 451 519 34,000  Level FlightAware
Mon 06:50:51 AM 58.2460 34.2200 321° Northwest 450 518 34,000  Level FlightAware
Mon 06:51:27 AM 58.3030 34.1310 321° Northwest 448 516 34,000  Level FlightAware
Mon 06:52:06 AM 58.3710 34.0280 322° Northwest 447 514 34,000  Level FlightAware
Mon 06:52:41 AM 58.4260 33.9420 321° Northwest 447 514 34,000  Level FlightAware
Mon 06:53:28 AM 58.4890 33.8460 321° Northwest 447 514 34,000  Level FlightAware
Mon 06:54:04 AM 58.5380 33.7690 321° Northwest 447 514 34,000  Level FlightAware
Mon 06:54:40 AM 58.5870 33.6930 321° Northwest 447 514 34,000  Level FlightAware
Mon 06:55:21 AM 58.6810 33.5470 321° Northwest 440 506 34,000  Level FlightAware
Mon 06:56:00 AM 58.7330 33.4640 320° Northwest 440 506 34,000  Level FlightAware
Mon 06:56:36 AM 58.7800 33.3870 320° Northwest 440 506 34,000  Level FlightAware
Mon 06:57:12 AM 58.8280 33.3090 320° Northwest 440 506 34,000  Level FlightAware
Mon 06:57:48 AM 58.8760 33.2320 320° Northwest 440 506 34,000  Level FlightAware
Mon 06:58:24 AM 58.9230 33.1540 319° Northwest 440 506 34,000  Level FlightAware
Mon 06:59:13 AM 58.9880 33.0490 320° Northwest 440 506 34,000  Level FlightAware
Mon 06:59:49 AM 59.0360 32.9710 320° Northwest 440 506 34,000  Level FlightAware
Mon 07:00:25 AM 59.1100 32.7040 298° West 438 504 34,000  Level FlightAware
Mon 07:00:58 AM 59.1280 32.5880 287° West 439 505 34,000  Level FlightAware
Mon 07:01:50 AM 59.1570 32.3830 286° West 440 506 34,000  Level FlightAware
Mon 07:02:42 AM 59.1840 32.1870 285° West 442 509 34,000  Level FlightAware
Mon 07:03:22 AM 59.2040 32.0440 285° West 442 509 34,000  Level FlightAware
Mon 07:03:59 AM 59.2230 31.9000 285° West 443 510 34,000  Level FlightAware
Mon 07:04:25 AM 59.2370 31.8010 285° West 444 511 34,000  Level FlightAware
Mon 07:05:10 AM 59.2620 31.6160 285° West 444 511 34,000  Level FlightAware
Mon 07:05:45 AM 59.2810 31.4760 285° West 445 512 34,000  Level FlightAware
Mon 07:06:20 AM 59.2990 31.3410 285° West 445 512 34,000  Level FlightAware
Mon 07:07:00 AM 59.3200 31.1840 285° West 446 513 34,000  Level FlightAware
Mon 07:07:35 AM 59.3380 31.0520 285° West 447 514 34,000  Level FlightAware
Mon 07:08:10 AM 59.3550 30.9140 284° West 447 514 34,000  Level FlightAware
Mon 07:08:45 AM 59.3740 30.7730 285° West 446 513 34,000  Level FlightAware
Mon 07:09:20 AM 59.3910 30.6390 284° West 447 514 34,000  Level FlightAware
Mon 07:09:55 AM 59.4080 30.4990 283° West 449 517 34,000  Level FlightAware
Mon 07:10:35 AM 59.4280 30.3410 284° West 451 519 34,000  Level FlightAware
Mon 07:11:16 AM 59.4480 30.1840 284° West 453 521 34,000  Level FlightAware
Mon 07:11:51 AM 59.4620 30.0630 283° West 454 522 34,000  Level FlightAware
Mon 07:12:30 AM 59.4840 29.8850 284° West 456 525 34,000  Level FlightAware
Mon 07:13:05 AM 59.5010 29.7400 283° West 457 526 34,000  Level FlightAware
Mon 07:13:35 AM 59.5160 29.6200 284° West 458 527 34,000  Level FlightAware
Mon 07:14:16 AM 59.5340 29.4620 283° West 458 527 34,000  Level FlightAware
Mon 07:14:50 AM 59.5510 29.3160 283° West 458 527 34,000  Level FlightAware
Mon 07:15:25 AM 59.5680 29.1760 284° West 458 527 34,000  Level FlightAware
Mon 07:16:01 AM 59.5790 29.0740 282° West 459 528 34,000  Level FlightAware
Mon 07:16:37 AM 59.6010 28.8820 283° West 458 527 34,000  Level FlightAware
Mon 07:17:09 AM 59.6160 28.7510 283° West 459 528 34,000  Level FlightAware
Mon 07:17:46 AM 59.6380 28.6000 286° West 460 529 34,000  Level FlightAware
Mon 07:18:21 AM 59.6580 28.4640 286° West 459 528 34,000  Level FlightAware
Mon 07:18:53 AM 59.6780 28.3280 286° West 459 528 34,000  Level FlightAware
Mon 07:19:30 AM 59.6990 28.1810 286° West 460 529 34,000  Level FlightAware
Mon 07:19:54 AM 59.7130 28.0860 286° West 461 531 34,000  Level FlightAware
Mon 07:20:55 AM 59.7400 27.8930 286° West 462 532 34,000  Level FlightAware
Mon 07:21:38 AM 59.7720 27.6620 285° West 465 535 34,000  Level FlightAware
Mon 07:22:11 AM 59.7900 27.5320 285° West 465 535 34,000  Level FlightAware
Mon 07:22:43 AM 59.8080 27.3940 285° West 464 534 34,000  Level FlightAware
Mon 07:23:15 AM 59.8260 27.2620 285° West 463 533 34,000  Level FlightAware
Mon 07:24:29 AM 59.8660 26.9620 285° West 461 531 34,000  Level FlightAware
Mon 07:25:05 AM 59.8860 26.8120 285° West 460 529 34,000  Level FlightAware
Mon 07:25:39 AM 59.9040 26.6760 285° West 459 528 34,000  Level FlightAware
Mon 07:26:11 AM 59.9210 26.5440 284° West 459 528 34,000  Level FlightAware
Mon 07:26:47 AM 59.9430 26.3960 287° West 462 532 34,000  Level FlightAware
Mon 07:27:31 AM 59.9810 26.2230 294° West 469 540 34,000  Level FlightAware
Mon 07:28:07 AM 60.0220 26.0890 302° West 474 545 34,000  Level FlightAware
Mon 07:28:39 AM 60.0620 25.9760 305° West 473 544 34,000 125 Level FlightAware
Mon 07:28:55 AM 60.0780 25.9150 298° West 468 539 34,100 545 Climbing FlightAware
Mon 07:29:23 AM 60.1020 25.8050 294° West 469 540 34,400 706 Climbing FlightAware
Mon 07:30:03 AM 60.1390 25.6470 295° West 472 543 34,900 711 Climbing FlightAware
Mon 07:30:39 AM 60.1730 25.5040 296° West 472 543 35,300 686 Climbing FlightAware
Mon 07:31:13 AM 60.2040 25.3690 295° West 473 544 35,700 583 Climbing FlightAware
Mon 07:31:51 AM 60.2390 25.2180 295° West 470 541 36,000 257 Climbing FlightAware
Mon 07:32:23 AM 60.2680 25.0920 295° West 470 541 36,000  Level FlightAware
Mon 07:32:59 AM 60.3010 24.9500 295° West 470 541 36,000  Level FlightAware
Mon 07:33:36 AM 60.3340 24.8030 294° West 470 541 36,000  Level FlightAware
Mon 07:34:12 AM 60.3670 24.6600 295° West 470 541 36,000  Level FlightAware
Mon 07:34:43 AM 60.3940 24.5370 294° West 470 541 36,000  Level FlightAware
Mon 07:35:15 AM 60.4230 24.4070 294° West 471 542 36,000  Level FlightAware
Mon 07:35:57 AM 60.4620 24.2360 295° West 473 544 36,000  Level FlightAware
Mon 07:36:29 AM 60.4940 24.1110 298° West 475 547 36,000  Level FlightAware
Mon 07:37:03 AM 60.5280 23.9840 299° West 474 545 36,000  Level FlightAware
Mon 07:37:39 AM 60.5650 23.8470 299° West 472 543 36,000  Level FlightAware
Mon 07:38:13 AM 60.6000 23.7130 298° West 472 543 36,000  Level FlightAware
Mon 07:38:49 AM 60.6370 23.5720 298° West 471 542 36,000  Level FlightAware
Mon 07:39:25 AM 60.6750 23.4260 298° West 470 541 36,000  Level FlightAware
Mon 07:39:58 AM 60.7080 23.2970 298° West 469 540 36,000  Level FlightAware
Mon 07:41:34 AM 60.7960 22.9510 298° West 468 539 36,000  Level FlightAware
Mon 07:42:10 AM 60.8370 22.7860 297° West 468 539 36,000  Level FlightAware
Mon 07:42:46 AM 60.8750 22.6350 297° West 471 542 36,000  Level FlightAware
Mon 07:42:54 AM 60.8810 22.6100 296° West 471 542 36,000  Level FlightAware
Mon 07:43:50 AM 60.9260 22.4270 297° West 470 541 36,000  Level FlightAware
Mon 07:44:22 AM 60.9680 22.2670 298° West 471 542 36,000  Level FlightAware
Mon 07:45:03 AM 61.0200 22.1010 303° West 473 544 36,000  Level FlightAware
Mon 07:45:40 AM 61.0620 21.9640 302° West 471 542 36,000  Level FlightAware
Mon 07:46:08 AM 61.0950 21.8580 303° West 465 535 36,000  Level FlightAware
Mon 07:46:38 AM 61.1290 21.7460 302° West 464 534 36,000  Level FlightAware
Mon 07:47:24 AM 61.1800 21.5740 302° West 464 534 36,000  Level FlightAware
Mon 07:47:58 AM 61.2190 21.4440 302° West 462 532 36,000  Level FlightAware
Mon 07:48:32 AM 61.2580 21.3140 302° West 462 532 36,000  Level FlightAware
Mon 07:49:08 AM 61.2980 21.1770 301° West 463 533 36,000  Level FlightAware
Mon 07:49:41 AM 61.3330 21.0580 302° West 463 533 36,000  Level FlightAware
Mon 07:50:20 AM 61.3770 20.9060 301° West 462 532 36,000  Level FlightAware
Mon 07:50:51 AM 61.4110 20.7900 302° West 462 532 36,000  Level FlightAware
Mon 07:51:27 AM 61.4500 20.6540 301° West 462 532 36,000  Level FlightAware
Mon 07:52:05 AM 61.4920 20.5080 301° West 462 532 36,000  Level FlightAware
Mon 07:52:38 AM 61.5240 20.3940 301° West 462 532 36,000  Level FlightAware
Mon 07:53:11 AM 61.5630 20.2580 301° West 464 534 36,000  Level FlightAware
Mon 07:53:46 AM 61.6010 20.1210 300° West 465 535 36,000  Level FlightAware
Mon 07:54:25 AM 61.6440 19.9670 301° West 466 536 36,000  Level FlightAware
Mon 07:54:57 AM 61.6770 19.8510 301° West 466 536 36,000  Level FlightAware
Mon 07:55:32 AM 61.7150 19.7130 300° West 466 536 36,000  Level FlightAware
Mon 07:56:08 AM 61.7550 19.5660 300° West 465 535 36,000  Level FlightAware
Mon 07:56:45 AM 61.8030 19.4320 307° West 469 540 36,000  Level FlightAware
Mon 07:57:17 AM 61.8540 19.3280 316° Northwest 467 537 36,000  Level FlightAware
Mon 07:57:53 AM 61.9080 19.2130 315° West 465 535 36,000  Level FlightAware
Mon 07:58:29 AM 61.9620 19.0990 315° West 465 535 36,000  Level FlightAware
Mon 07:59:04 AM 62.0170 18.9830 315° West 465 535 36,000  Level FlightAware
Mon 07:59:37 AM 62.0660 18.8800 315° West 465 535 36,000  Level FlightAware
Mon 07:59:55 AM 62.0940 18.8190 314° West 465 535 36,000  Level FlightAware
Mon 08:01:48 AM 62.2450 18.4940 315° West 465 535 36,000  Level FlightAware
Mon 08:03:02 AM 62.3550 18.2530 315° West 466 536 36,000  Level FlightAware
Mon 08:03:37 AM 62.4110 18.1290 314° West 466 536 36,000  Level FlightAware
Mon 08:04:16 AM 62.4870 17.9630 315° West 466 536 36,000  Level FlightAware
Mon 08:04:48 AM 62.5350 17.8540 314° West 467 537 36,000  Level FlightAware
Mon 08:05:01 AM 62.5540 17.8120 314° West 467 537 36,000  Level FlightAware
Mon 08:06:13 AM 62.6630 17.5650 314° West 469 540 36,000  Level FlightAware
Mon 08:06:45 AM 62.7100 17.4600 314° West 468 539 36,000  Level FlightAware
Mon 08:07:25 AM 62.7690 17.3240 314° West 469 540 36,000  Level FlightAware
Mon 08:07:57 AM 62.8170 17.2150 314° West 468 539 36,000  Level FlightAware
Mon 08:08:35 AM 62.8740 17.0830 313° West 469 540 36,000  Level FlightAware
Mon 08:09:11 AM 62.9270 16.9580 313° West 469 540 36,000  Level FlightAware
Mon 08:09:43 AM 62.9750 16.8460 313° West 470 541 36,000  Level FlightAware
Mon 08:10:21 AM 63.0310 16.7150 313° West 471 542 36,000  Level FlightAware
Mon 08:10:59 AM 63.0870 16.5840 313° West 472 543 36,000  Level FlightAware
Mon 08:11:35 AM 63.1410 16.4540 313° West 474 545 36,000  Level FlightAware
Mon 08:12:03 AM 63.1780 16.3670 313° West 473 544 36,000  Level FlightAware
Mon 08:12:45 AM 63.2440 16.2070 313° West 472 543 36,000  Level FlightAware
Mon 08:13:29 AM 63.3090 16.0490 313° West 471 542 36,000  Level FlightAware
Mon 08:14:01 AM 63.3570 15.9340 313° West 470 541 36,000  Level FlightAware
Mon 08:14:37 AM 63.4100 15.8040 312° West 472 543 36,000  Level FlightAware
Mon 08:15:13 AM 63.4610 15.6780 312° West 471 542 36,000  Level FlightAware
Mon 08:15:45 AM 63.5070 15.5640 312° West 471 542 36,000  Level FlightAware
Mon 08:16:23 AM 63.5630 15.4240 312° West 472 543 36,000  Level FlightAware
Mon 08:16:59 AM 63.6150 15.2930 312° West 472 543 36,000  Level FlightAware
Mon 08:17:35 AM 63.6680 15.1600 312° West 473 544 36,000  Level FlightAware
Mon 08:18:07 AM 63.7140 15.0430 312° West 473 544 36,000  Level FlightAware
Mon 08:18:43 AM 63.7650 14.9140 312° West 474 545 36,000  Level FlightAware
Mon 08:19:15 AM 63.8130 14.7910 312° West 473 544 36,000  Level FlightAware
Mon 08:19:54 AM 63.8680 14.6490 311° West 473 544 36,000  Level FlightAware
Mon 08:21:33 AM 63.9920 14.3240 311° West 472 543 36,000  Level FlightAware
Mon 08:22:00 AM 64.0290 14.2270 311° West 473 544 36,000  Level FlightAware
Mon 08:22:49 AM 64.1180 13.9920 311° West 470 541 36,000  Level FlightAware
Mon 08:23:23 AM 64.1660 13.8620 310° West 465 535 36,000  Level FlightAware
Mon 08:23:47 AM 64.1980 13.7760 311° West 464 534 36,000  Level FlightAware
Mon 08:24:49 AM 64.2840 13.5440 311° West 464 534 36,000  Level FlightAware
Mon 08:25:21 AM 64.3290 13.4220 310° West 464 534 36,000  Level FlightAware
Mon 08:25:53 AM 64.3730 13.2990 310° West 465 535 36,000  Level FlightAware
Mon 08:26:34 AM 64.4260 13.1530 310° West 465 535 36,000  Level FlightAware
Mon 08:27:05 AM 64.4720 13.0260 310° West 465 535 36,000  Level FlightAware
Mon 08:27:38 AM 64.5180 12.8960 309° West 465 535 36,000  Level FlightAware
Mon 08:28:15 AM 64.5680 12.7560 310° West 464 534 36,000  Level FlightAware
Mon 08:28:51 AM 64.6170 12.6180 310° West 464 534 36,000  Level FlightAware
Mon 08:29:41 AM 64.6840 12.4270 309° West 465 535 36,000  Level FlightAware
Mon 08:30:22 AM 64.7390 12.2680 309° West 465 535 36,000  Level FlightAware
Mon 08:30:57 AM 64.7880 12.1270 309° West 466 536 36,000  Level FlightAware
Mon 08:31:35 AM 64.8380 11.9790 309° West 465 535 36,000  Level FlightAware
Mon 08:32:05 AM 64.8780 11.8630 309° West 463 533 36,000  Level FlightAware
Mon 08:32:43 AM 64.9290 11.7130 309° West 461 531 36,000  Level FlightAware
Mon 08:33:19 AM 64.9770 11.5700 308° West 461 531 36,000  Level FlightAware
Mon 08:33:55 AM 65.0250 11.4270 309° West 463 533 36,000  Level FlightAware
Mon 08:34:31 AM 65.0730 11.2830 308° West 463 533 36,000  Level FlightAware
Mon 08:35:01 AM 65.1110 11.1680 308° West 463 533 36,000  Level FlightAware
Mon 08:35:40 AM 65.1620 11.0130 308° West 464 534 36,000  Level FlightAware
Mon 08:36:13 AM 65.2060 10.8770 308° West 465 535 36,000  Level FlightAware
Mon 08:36:47 AM 65.2510 10.7390 308° West 464 534 36,000  Level FlightAware
Mon 08:37:23 AM 65.2980 10.5930 308° West 462 532 36,000  Level FlightAware
Mon 08:37:59 AM 65.3450 10.4470 308° West 460 529 36,000  Level FlightAware
Mon 08:38:35 AM 65.3920 10.3000 308° West 460 529 36,000  Level FlightAware
Mon 08:39:08 AM 65.4320 10.1710 307° West 459 528 36,000  Level FlightAware
Mon 08:39:46 AM 65.4800 10.0180 307° West 458 527 36,000  Level FlightAware
Mon 08:39:54 AM 65.4910 9.9840 308° West 458 527 36,000  Level FlightAware
Mon 08:39:58 AM 65.4960 9.9690 309° West 459 528 36,000  Level FlightAware
Mon 08:41:32 AM 65.6010 9.6310 307° West 465 535 36,000  Level FlightAware
Mon 08:42:14 AM 65.6700 9.4050 307° West 467 537 36,000  Level FlightAware
Mon 08:42:50 AM 65.7160 9.2540 307° West 467 537 36,000  Level FlightAware
Mon 08:43:12 AM 65.7430 9.1630 306° West 467 537 36,000  Level FlightAware
Mon 08:44:17 AM 65.8040 8.9590 306° West 467 537 36,000  Level FlightAware
Mon 08:44:53 AM 65.8430 8.8280 306° West 467 537 36,000  Level FlightAware
Mon 08:45:30 AM 65.8830 8.6940 306° West 467 537 36,000  Level FlightAware
Mon 08:46:06 AM 65.9220 8.5630 306° West 467 537 36,000  Level FlightAware
Mon 08:46:43 AM 65.9620 8.4280 306° West 467 537 36,000  Level FlightAware
Mon 08:47:19 AM 66.0010 8.2960 306° West 467 537 36,000  Level FlightAware
Mon 08:47:58 AM 66.0430 8.1540 306° West 467 537 36,000  Level FlightAware
Mon 08:48:34 AM 66.0820 8.0220 306° West 467 537 36,000  Level FlightAware
Mon 08:49:10 AM 66.1200 7.8900 305° West 467 537 36,000  Level FlightAware
Mon 08:49:46 AM 66.1590 7.7570 306° West 467 537 36,000  Level FlightAware
Mon 08:50:22 AM 66.1980 7.6250 306° West 467 537 36,000  Level FlightAware
Mon 08:50:58 AM 66.2370 7.4920 306° West 467 537 36,000  Level FlightAware
Mon 08:51:34 AM 66.2760 7.3590 306° West 467 537 36,000  Level FlightAware
Mon 08:52:10 AM 66.3150 7.2260 306° West 467 537 36,000  Level FlightAware
Mon 08:52:46 AM 66.3530 7.0930 306° West 467 537 36,000  Level FlightAware
Mon 08:53:23 AM 66.3930 6.9560 306° West 467 537 36,000  Level FlightAware
Mon 08:56:00 AM 66.4381 6.2235 279° West  Level Estimated
Mon 08:57:00 AM 66.4544 5.9429 278° West  Level Estimated
Mon 08:58:00 AM 66.4702 5.6619 278° West  Level Estimated
Mon 08:59:00 AM 66.4855 5.3805 278° West  Level Estimated
Mon 09:00:00 AM 66.5003 5.0988 278° West  Level Estimated
Mon 09:01:00 AM 66.5146 4.8168 277° West  Level Estimated
Mon 09:02:00 AM 66.5284 4.5345 277° West  Level Estimated
Mon 09:03:00 AM 66.5416 4.2519 277° West  Level Estimated
Mon 09:04:00 AM 66.5544 3.9689 277° West  Level Estimated
Mon 09:05:00 AM 66.5666 3.6857 276° West  Level Estimated
Mon 09:06:00 AM 66.5784 3.4022 276° West  Level Estimated
Mon 09:07:00 AM 66.5896 3.1185 276° West  Level Estimated
Mon 09:08:00 AM 66.6003 2.8345 276° West  Level Estimated
Mon 09:09:00 AM 66.6105 2.5503 275° West  Level Estimated
Mon 09:10:00 AM 66.6202 2.2658 275° West  Level Estimated
Mon 09:11:00 AM 66.6294 1.9811 275° West  Level Estimated
Mon 09:12:00 AM 66.6380 1.6962 275° West  Level Estimated
Mon 09:13:00 AM 66.6462 1.4111 274° West  Level Estimated
Mon 09:14:00 AM 66.6538 1.1258 274° West  Level Estimated
Mon 09:15:00 AM 66.6609 0.8404 274° West  Level Estimated
Mon 09:16:00 AM 66.6675 0.5548 273° West  Level Estimated
Mon 09:17:00 AM 66.6736 0.2691 273° West  Level Estimated
Mon 09:18:00 AM 66.6791 -0.0168 273° West  Level Estimated
Mon 09:19:00 AM 66.6842 -0.3028 273° West  Level Estimated
Mon 09:20:00 AM 66.6887 -0.5889 272° West  Level Estimated
Mon 09:21:00 AM 66.6927 -0.8751 272° West  Level Estimated
Mon 09:22:00 AM 66.6962 -1.1614 272° West  Level Estimated
Mon 09:23:00 AM 66.6991 -1.4478 272° West  Level Estimated
Mon 09:24:00 AM 66.7016 -1.7342 271° West  Level Estimated
Mon 09:25:00 AM 66.7035 -2.0207 271° West  Level Estimated
Mon 09:26:00 AM 66.7049 -2.3072 271° West  Level Estimated
Mon 09:27:00 AM 66.7058 -2.5938 271° West  Level Estimated
Mon 09:28:00 AM 66.7061 -2.8804 270° West  Level Estimated
Mon 09:29:00 AM 66.7060 -3.1669 270° West  Level Estimated
Mon 09:30:00 AM 66.7053 -3.4535 270° West  Level Estimated
Mon 09:31:00 AM 66.7041 -3.7400 270° West  Level Estimated
Mon 09:32:00 AM 66.7024 -4.0265 269° West  Level Estimated
Mon 09:33:00 AM 66.7001 -4.3129 269° West  Level Estimated
Mon 09:34:00 AM 66.6974 -4.5993 269° West  Level Estimated
Mon 09:35:00 AM 66.6941 -4.8857 268° West  Level Estimated
Mon 09:36:00 AM 66.6903 -5.1719 268° West  Level Estimated
Mon 09:37:00 AM 66.6859 -5.4580 268° West  Level Estimated
Mon 09:38:00 AM 66.6811 -5.7441 268° West  Level Estimated
Mon 09:39:00 AM 66.6757 -6.0300 267° West  Level Estimated
Mon 09:40:00 AM 66.6699 -6.3158 267° West  Level Estimated
Mon 09:41:00 AM 66.6635 -6.6014 267° West  Level Estimated
Mon 09:42:00 AM 66.6565 -6.8869 267° West  Level Estimated
Mon 09:43:00 AM 66.6491 -7.1723 266° West  Level Estimated
Mon 09:44:00 AM 66.6412 -7.4574 266° West  Level Estimated
Mon 09:45:00 AM 66.6327 -7.7424 266° West  Level Estimated
Mon 09:46:00 AM 66.6237 -8.0272 266° West  Level Estimated
Mon 09:47:00 AM 66.6142 -8.3117 265° West  Level Estimated
Mon 09:48:00 AM 66.6042 -8.5960 265° West  Level Estimated
Mon 09:49:00 AM 66.5937 -8.8801 265° West  Level Estimated
Mon 09:50:00 AM 66.5826 -9.1640 265° West  Level Estimated
Mon 09:51:00 AM 66.5711 -9.4476 264° West  Level Estimated
Mon 09:52:00 AM 66.5590 -9.7309 264° West  Level Estimated
Mon 09:53:00 AM 66.5464 -10.0139 264° West  Level Estimated
Mon 09:54:00 AM 66.5334 -10.2967 263° West  Level Estimated
Mon 09:55:00 AM 66.5198 -10.5791 263° West  Level Estimated
Mon 09:56:00 AM 66.5057 -10.8612 263° West  Level Estimated
Mon 09:57:00 AM 66.4911 -11.1430 263° West  Level Estimated
Mon 09:58:00 AM 66.4760 -11.4245 262° West  Level Estimated
Mon 09:59:00 AM 66.4603 -11.7056 262° West  Level Estimated
Mon 10:00:00 AM 66.4442 -11.9864 262° West  Level Estimated
Mon 10:01:00 AM 66.4276 -12.2668 262° West  Level Estimated
Mon 10:02:00 AM 66.4104 -12.5468 261° West  Level Estimated
Mon 10:03:00 AM 66.3928 -12.8264 261° West  Level Estimated
Mon 10:04:00 AM 66.3747 -13.1057 261° West  Level Estimated
Mon 10:05:00 AM 66.3560 -13.3845 261° West  Level Estimated
Mon 10:06:00 AM 66.3369 -13.6629 260° West  Level Estimated
Mon 10:07:00 AM 66.3173 -13.9409 260° West  Level Estimated
Mon 10:08:00 AM 66.2972 -14.2184 260° West  Level Estimated
Mon 10:09:00 AM 66.2766 -14.4955 260° West  Level Estimated
Mon 10:10:00 AM 66.2554 -14.7721 259° West  Level Estimated
Mon 10:11:00 AM 66.2338 -15.0483 259° West  Level Estimated
Mon 10:12:00 AM 66.2118 -15.3239 259° West  Level Estimated
Mon 10:13:00 AM 66.1892 -15.5991 259° West  Level Estimated
Mon 10:14:00 AM 66.1661 -15.8738 258° West  Level Estimated
Mon 10:15:00 AM 66.1426 -16.1480 258° West  Level Estimated
Mon 10:16:00 AM 66.1185 -16.4217 258° West  Level Estimated
Mon 10:17:00 AM 66.0940 -16.6948 258° West  Level Estimated
Mon 10:18:00 AM 66.0690 -16.9674 257° West  Level Estimated
Mon 10:19:00 AM 66.0435 -17.2395 257° West  Level Estimated
Mon 10:20:00 AM 66.0176 -17.5110 257° West  Level Estimated
Mon 10:21:00 AM 65.9911 -17.7820 257° West  Level Estimated
Mon 10:22:00 AM 65.9642 -18.0524 256° West  Level Estimated
Mon 10:23:00 AM 65.9369 -18.3223 256° West  Level Estimated
Mon 10:24:00 AM 65.9090 -18.5915 256° West  Level Estimated
Mon 10:25:00 AM 65.8807 -18.8602 256° West  Level Estimated
Mon 10:26:00 AM 65.8519 -19.1282 255° West  Level Estimated
Mon 10:27:00 AM 65.8226 -19.3957 255° West  Level Estimated
Mon 10:28:00 AM 65.7929 -19.6625 255° West  Level Estimated
Mon 10:29:00 AM 65.7627 -19.9287 255° West  Level Estimated
Mon 10:30:00 AM 65.7320 -20.1943 254° West  Level Estimated
Mon 10:31:00 AM 65.7009 -20.4593 254° West  Level Estimated
Mon 10:32:00 AM 65.6693 -20.7236 254° West  Level Estimated
Mon 10:33:00 AM 65.6373 -20.9873 254° West  Level Estimated
Mon 10:34:00 AM 65.6048 -21.2503 253° West  Level Estimated
Mon 10:35:00 AM 65.5719 -21.5127 253° West  Level Estimated
Mon 10:36:00 AM 65.5385 -21.7744 253° West  Level Estimated
Mon 10:37:00 AM 65.5047 -22.0354 253° West  Level Estimated
Mon 10:38:00 AM 65.4704 -22.2957 253° West  Level Estimated
Mon 10:39:00 AM 65.4357 -22.5554 252° West  Level Estimated
Mon 10:40:00 AM 65.4005 -22.8143 252° West  Level Estimated
Mon 10:41:00 AM 65.3649 -23.0726 252° West  Level Estimated
Mon 10:42:00 AM 65.3288 -23.3302 252° West  Level Estimated
Mon 10:43:00 AM 65.2923 -23.5870 251° West  Level Estimated
Mon 10:44:00 AM 65.2554 -23.8431 251° West  Level Estimated
Mon 10:45:00 AM 65.2180 -24.0986 251° West  Level Estimated
Mon 10:46:00 AM 65.1802 -24.3532 251° West  Level Estimated
Mon 10:47:00 AM 65.1420 -24.6072 250° West  Level Estimated
Mon 10:48:00 AM 65.1033 -24.8604 250° West  Level Estimated
Mon 10:49:00 AM 65.0643 -25.1129 250° West  Level Estimated
Mon 10:50:00 AM 65.0248 -25.3646 250° West  Level Estimated
Mon 10:51:00 AM 64.9848 -25.6156 249° West  Level Estimated
Mon 10:52:00 AM 64.9445 -25.8659 249° West  Level Estimated
Mon 10:53:00 AM 64.9037 -26.1154 249° West  Level Estimated
Mon 10:54:00 AM 64.8625 -26.3641 249° West  Level Estimated
Mon 10:55:00 AM 64.8210 -26.6120 249° West  Level Estimated
Mon 10:56:00 AM 64.7790 -26.8592 248° West  Level Estimated
Mon 10:57:00 AM 64.7365 -27.1056 248° West  Level Estimated
Mon 10:58:00 AM 64.6937 -27.3513 248° West  Level Estimated
Mon 10:59:00 AM 64.6505 -27.5961 248° West  Level Estimated
Mon 11:00:00 AM 64.6068 -27.8402 247° West  Level Estimated
Mon 11:01:00 AM 64.5628 -28.0835 247° West  Level Estimated
Mon 11:02:00 AM 64.5184 -28.3260 247° West  Level Estimated
Mon 11:03:00 AM 64.4736 -28.5678 247° West  Level Estimated
Mon 11:04:00 AM 64.4283 -28.8087 247° West  Level Estimated
Mon 11:05:00 AM 64.3827 -29.0488 246° West  Level Estimated
Mon 11:06:00 AM 64.3367 -29.2881 246° West  Level Estimated
Mon 11:07:00 AM 64.2903 -29.5266 246° West  Level Estimated
Mon 11:08:00 AM 64.2435 -29.7644 246° West  Level Estimated
Mon 11:09:00 AM 64.1963 -30.0013 246° West  Level Estimated
Mon 11:10:00 AM 64.1488 -30.2374 245° Southwest  Level Estimated
Mon 11:11:00 AM 64.1009 -30.4727 245° Southwest  Level Estimated
Mon 11:12:00 AM 64.0526 -30.7071 245° Southwest  Level Estimated
Mon 11:13:00 AM 64.0039 -30.9408 245° Southwest  Level Estimated
Mon 11:14:00 AM 63.9548 -31.1737 244° Southwest  Level Estimated
Mon 11:15:00 AM 63.9054 -31.4057 244° Southwest  Level Estimated
Mon 11:16:00 AM 63.8556 -31.6369 244° Southwest  Level Estimated
Mon 11:17:00 AM 63.8054 -31.8673 244° Southwest  Level Estimated
Mon 11:18:00 AM 63.7549 -32.0969 244° Southwest  Level Estimated
Mon 11:19:00 AM 63.7040 -32.3256 243° Southwest  Level Estimated
Mon 11:20:00 AM 63.6527 -32.5535 243° Southwest  Level Estimated
Mon 11:21:00 AM 63.6011 -32.7806 243° Southwest  Level Estimated
Mon 11:22:00 AM 63.5491 -33.0069 243° Southwest  Level Estimated
Mon 11:23:00 AM 63.4968 -33.2323 243° Southwest  Level Estimated
Mon 11:24:00 AM 63.4441 -33.4570 242° Southwest  Level Estimated
Mon 11:25:00 AM 63.3910 -33.6808 242° Southwest  Level Estimated
Mon 11:26:00 AM 63.3377 -33.9037 242° Southwest  Level Estimated
Mon 11:27:00 AM 63.2839 -34.1258 242° Southwest  Level Estimated
Mon 11:28:00 AM 63.2298 -34.3471 242° Southwest  Level Estimated
Mon 11:29:00 AM 63.1754 -34.5676 241° Southwest  Level Estimated
Mon 11:30:00 AM 63.1207 -34.7873 241° Southwest  Level Estimated
Mon 11:31:00 AM 63.0656 -35.0061 241° Southwest  Level Estimated
Mon 11:32:00 AM 63.0101 -35.2241 241° Southwest  Level Estimated
Mon 11:33:00 AM 62.9543 -35.4412 241° Southwest  Level Estimated
Mon 11:34:00 AM 62.8983 -35.6576 240° Southwest  Level Estimated
Mon 11:35:00 AM 62.8418 -35.8731 240° Southwest  Level Estimated
Mon 11:36:00 AM 62.7851 -36.0877 240° Southwest  Level Estimated
Mon 11:37:00 AM 62.7280 -36.3016 240° Southwest  Level Estimated
Mon 11:38:00 AM 62.6706 -36.5146 240° Southwest  Level Estimated
Mon 11:39:00 AM 62.6128 -36.7268 239° Southwest  Level Estimated
Mon 11:40:00 AM 62.5548 -36.9382 239° Southwest  Level Estimated
Mon 11:41:00 AM 62.4964 -37.1487 239° Southwest  Level Estimated
Mon 11:42:00 AM 62.4377 -37.3584 239° Southwest  Level Estimated
Mon 11:43:00 AM 62.3787 -37.5673 239° Southwest  Level Estimated
Mon 11:44:00 AM 62.3194 -37.7754 239° Southwest  Level Estimated
Mon 11:45:00 AM 62.2598 -37.9827 238° Southwest  Level Estimated
Mon 11:46:00 AM 62.1999 -38.1891 238° Southwest  Level Estimated
Mon 11:47:00 AM 62.1396 -38.3947 238° Southwest  Level Estimated
Mon 11:48:00 AM 62.0791 -38.5995 238° Southwest  Level Estimated
Mon 11:49:00 AM 62.0183 -38.8035 238° Southwest  Level Estimated
Mon 11:50:00 AM 61.9571 -39.0066 237° Southwest  Level Estimated
Mon 11:51:00 AM 61.8957 -39.2090 237° Southwest  Level Estimated
Mon 11:52:00 AM 61.8340 -39.4105 237° Southwest  Level Estimated
Mon 11:53:00 AM 61.7719 -39.6112 237° Southwest  Level Estimated
Mon 11:54:00 AM 61.7096 -39.8111 237° Southwest  Level Estimated
Mon 11:55:00 AM 61.6470 -40.0102 237° Southwest  Level Estimated
Mon 11:56:00 AM 61.5841 -40.2085 236° Southwest  Level Estimated
Mon 11:57:00 AM 61.5209 -40.4060 236° Southwest  Level Estimated
Mon 11:58:00 AM 61.4575 -40.6027 236° Southwest  Level Estimated
Mon 11:59:00 AM 61.3937 -40.7986 236° Southwest  Level Estimated
Mon 12:00:00 PM 61.3297 -40.9936 236° Southwest  Level Estimated
Mon 12:01:00 PM 61.2654 -41.1879 236° Southwest  Level Estimated
Mon 12:02:00 PM 61.2008 -41.3814 235° Southwest  Level Estimated
Mon 12:02:14 PM 62.2360 -49.3560 235° Southwest 475 547 36,000  Level FlightAware
Mon 12:02:43 PM 62.1960 -49.4680 233° Southwest 476 548 36,000  Level FlightAware
Mon 12:03:21 PM 62.1440 -49.6090 232° Southwest 478 550 36,000  Level FlightAware
Mon 12:04:02 PM 62.0970 -49.7390 232° Southwest 478 550 36,000  Level FlightAware
Mon 12:04:38 PM 62.0550 -49.8530 232° Southwest 478 550 36,000  Level FlightAware
Mon 12:05:29 PM 61.9770 -50.0760 233° Southwest 481 554 36,000  Level FlightAware
Mon 12:06:09 PM 61.9380 -50.2390 243° Southwest 482 555 36,000  Level FlightAware
Mon 12:06:46 PM 61.9040 -50.3700 241° Southwest 482 555 36,000  Level FlightAware
Mon 12:07:22 PM 61.8630 -50.5700 247° West 481 554 36,000  Level FlightAware
Mon 12:07:58 PM 61.8300 -50.7010 242° Southwest 482 555 36,000  Level FlightAware
Mon 12:08:37 PM 61.7950 -50.8390 242° Southwest 482 555 36,000  Level FlightAware
Mon 12:09:25 PM 61.7520 -51.0090 242° Southwest 482 555 36,000  Level FlightAware
Mon 12:10:18 PM 61.6840 -51.2870 243° Southwest 485 558 36,000  Level FlightAware
Mon 12:10:58 PM 61.6440 -51.4420 242° Southwest 484 557 36,000  Level FlightAware
Mon 12:11:36 PM 61.6080 -51.5750 240° Southwest 484 557 36,000  Level FlightAware
Mon 12:12:22 PM 61.5660 -51.7360 241° Southwest 484 557 36,000  Level FlightAware
Mon 12:13:11 PM 61.5210 -51.9080 241° Southwest 484 557 36,000  Level FlightAware
Mon 12:14:03 PM 61.4430 -52.2220 243° Southwest 489 563 36,000  Level FlightAware
Mon 12:14:41 PM 61.4070 -52.3550 241° Southwest 489 563 36,000  Level FlightAware
Mon 12:15:18 PM 61.3730 -52.4850 241° Southwest 489 563 36,000  Level FlightAware
Mon 12:15:55 PM 61.3380 -52.6150 241° Southwest 489 563 36,000  Level FlightAware
Mon 12:16:29 PM 61.3060 -52.7340 241° Southwest 489 563 36,000  Level FlightAware
Mon 12:17:08 PM 61.2700 -52.8710 241° Southwest 489 563 36,000  Level FlightAware
Mon 12:17:44 PM 61.2360 -52.9970 241° Southwest 489 563 36,000  Level FlightAware
Mon 12:18:21 PM 61.2020 -53.1260 241° Southwest 489 563 36,000  Level FlightAware
Mon 12:19:09 PM 61.1570 -53.2930 241° Southwest 489 563 36,000  Level FlightAware
Mon 12:19:45 PM 61.1240 -53.4190 242° Southwest 489 563 36,000  Level FlightAware
Mon 12:19:57 PM 61.1120 -53.4610 239° Southwest 489 563 36,000  Level FlightAware
Mon 12:20:54 PM 61.0590 -53.6590 241° Southwest 489 563 36,000  Level FlightAware
Mon 12:21:41 PM 61.0150 -53.8220 241° Southwest 489 563 36,000  Level FlightAware
Mon 12:22:29 PM 60.9710 -53.9880 241° Southwest 489 563 36,000  Level FlightAware
Mon 12:23:06 PM 60.9360 -54.1170 241° Southwest 489 563 36,000  Level FlightAware
Mon 12:23:30 PM 60.9140 -54.2000 241° Southwest 489 563 36,000  Level FlightAware
Mon 12:26:00 PM 60.6964 -54.5719 220° Southwest  Level Estimated
Mon 12:27:00 PM 60.6090 -54.7192 220° Southwest  Level Estimated
Mon 12:28:00 PM 60.5215 -54.8657 220° Southwest  Level Estimated
Mon 12:29:00 PM 60.4339 -55.0115 219° Southwest  Level Estimated
Mon 12:29:42 PM 60.4167 -55.8167 219° Southwest 470 541 36,000  Level Gander Center
Mon 12:30:00 PM 60.3461 -55.1565 219° Southwest  Level Estimated
Mon 12:30:42 PM 60.3333 -56.0333 232° Southwest 470 541 36,000  Level Gander Center
Mon 12:31:00 PM 60.2512 -55.3119 219° Southwest  Level Estimated
Mon 12:31:42 PM 60.2667 -56.2500 238° Southwest 480 552 36,000  Level Gander Center
Mon 12:32:00 PM 60.1561 -55.4665 219° Southwest  Level Estimated
Mon 12:32:42 PM 60.1833 -56.4667 232° Southwest 480 552 36,000  Level Gander Center
Mon 12:33:00 PM 60.0609 -55.6202 219° Southwest  Level Estimated
Mon 12:33:42 PM 60.1167 -56.6667 236° Southwest 470 541 36,000  Level Gander Center
Mon 12:34:00 PM 59.9655 -55.7729 219° Southwest  Level Estimated
Mon 12:34:42 PM 60.0500 -56.9167 242° Southwest 470 541 36,000  Level Gander Center
Mon 12:35:00 PM 59.8714 -55.9225 219° Southwest  Level Estimated
Mon 12:35:42 PM 59.9667 -57.1333 233° Southwest 470 541 36,000  Level Gander Center
Mon 12:36:42 PM 59.9167 -57.3333 244° Southwest 470 541 36,000  Level Gander Center
Mon 12:37:42 PM 59.8333 -57.5333 230° Southwest 460 529 36,000  Level Gander Center
Mon 12:38:42 PM 59.7667 -57.7833 242° Southwest 460 529 36,000  Level Gander Center
Mon 12:39:42 PM 59.7000 -57.9833 237° Southwest 460 529 36,000  Level Gander Center
Mon 12:40:42 PM 59.6333 -58.1833 237° Southwest 460 529 36,000  Level Gander Center
Mon 12:41:42 PM 59.5667 -58.3833 237° Southwest 460 529 36,000  Level Gander Center
Mon 12:42:42 PM 59.5000 -58.6000 239° Southwest 460 529 36,000  Level Gander Center
Mon 12:43:42 PM 59.4167 -58.8333 235° Southwest 460 529 36,000  Level Gander Center
Mon 12:44:42 PM 59.3500 -59.0333 237° Southwest 460 529 36,000  Level Gander Center
Mon 12:45:42 PM 59.2667 -59.2333 231° Southwest 460 529 36,000  Level Gander Center
Mon 12:46:42 PM 59.2000 -59.4333 237° Southwest 460 529 36,000  Level Gander Center
Mon 12:47:42 PM 59.1333 -59.6333 237° Southwest 460 529 36,000  Level Gander Center
Mon 12:48:42 PM 59.0500 -59.8333 231° Southwest 460 529 36,000  Level Gander Center
Mon 12:49:42 PM 58.9833 -60.0500 239° Southwest 460 529 36,000  Level Gander Center
Mon 12:50:42 PM 58.9000 -60.2167 226° Southwest 460 529 36,000  Level Gander Center
Mon 12:51:42 PM 58.7833 -60.3167 204° Southwest 460 529 36,000  Level Gander Center
Mon 12:52:42 PM 58.6667 -60.4167 204° Southwest 450 518 36,000  Level Gander Center
Mon 12:53:42 PM 58.5500 -60.5167 204° Southwest 460 529 36,000  Level Gander Center
Mon 12:54:42 PM 58.4333 -60.6167 204° Southwest 460 529 36,000  Level Gander Center
Mon 12:55:42 PM 58.3000 -60.7500 208° Southwest 450 518 36,000  Level Gander Center
Mon 12:56:42 PM 58.1833 -60.8333 201° Southwest 450 518 36,000  Level Gander Center
Mon 12:57:42 PM 58.0833 -60.9333 208° Southwest 460 529 36,000  Level Gander Center
Mon 12:58:42 PM 57.9667 -61.0333 204° Southwest 460 529 36,000  Level Gander Center
Mon 12:59:42 PM 57.8500 -61.1333 205° Southwest 460 529 36,000  Level Gander Center
Mon 01:00:42 PM 57.7333 -61.2167 201° Southwest 460 529 36,000  Level Gander Center
Mon 01:01:42 PM 57.6167 -61.3167 205° Southwest 460 529 36,000  Level Gander Center
Mon 01:02:42 PM 57.5000 -61.4000 201° Southwest 450 518 36,000  Level Gander Center
Mon 01:03:42 PM 57.3833 -61.5000 205° Southwest 450 518 36,000  Level Gander Center
Mon 01:04:42 PM 57.2667 -61.5833 201° Southwest 480 552 36,000  Level Gander Center
Mon 01:05:42 PM 57.1500 -61.7167 212° Southwest 470 541 36,000  Level Gander Center
Mon 01:06:42 PM 57.0333 -61.8000 201° Southwest 440 506 36,000  Level Gander Center
Mon 01:07:42 PM 56.9167 -61.9000 205° Southwest 460 529 36,000  Level Gander Center
Mon 01:08:42 PM 56.8000 -61.9833 201° Southwest 460 529 36,000  Level Gander Center
Mon 01:09:42 PM 56.6833 -62.0667 201° Southwest 450 518 36,000  Level Gander Center
Mon 01:10:42 PM 56.5667 -62.1667 205° Southwest 440 506 36,000  Level Gander Center
Mon 01:11:42 PM 56.4500 -62.2500 202° Southwest 440 506 36,000  Level Gander Center
Mon 01:12:42 PM 56.3333 -62.3333 202° Southwest 450 518 36,000  Level Gander Center
Mon 01:13:42 PM 56.2333 -62.4167 205° Southwest 450 518 36,000  Level Gander Center
Mon 01:15:05 PM 56.0667 -62.5333 201° Southwest 440 506 36,000  Level Gander Center
Mon 01:16:05 PM 55.9500 -62.6167 202° Southwest 440 506 36,000  Level Gander Center
Mon 01:16:42 PM 55.8833 -62.6833 209° Southwest 450 518 36,000  Level Gander Center
Mon 01:17:42 PM 55.7667 -62.7667 202° Southwest 450 518 36,000  Level Gander Center
Mon 01:18:42 PM 55.6500 -62.8500 202° Southwest 440 506 36,000  Level Gander Center
Mon 01:19:42 PM 55.5333 -62.9333 202° Southwest 440 506 36,000  Level Gander Center
Mon 01:20:42 PM 55.4167 -63.0167 202° Southwest 440 506 36,000  Level Gander Center
Mon 01:21:42 PM 55.3000 -63.1000 202° Southwest 440 506 36,000  Level Gander Center
Mon 01:22:42 PM 55.2000 -63.1500 196° South 440 506 36,000  Level Gander Center
Mon 01:23:42 PM 55.0833 -63.2333 202° Southwest 440 506 36,000  Level Gander Center
Mon 01:24:42 PM 54.9667 -63.3167 202° Southwest 440 506 36,000  Level Gander Center
Mon 01:25:42 PM 54.8667 -63.4000 206° Southwest 440 506 36,000  Level Gander Center
Mon 01:26:42 PM 54.7500 -63.4833 202° Southwest 440 506 36,000  Level Gander Center
Mon 01:27:42 PM 54.6333 -63.5667 202° Southwest 440 506 36,000  Level Gander Center
Mon 01:28:42 PM 54.5167 -63.6500 203° Southwest 450 518 36,000  Level Gander Center
Mon 01:29:42 PM 54.4000 -63.7167 198° South 450 518 36,000  Level Gander Center
Mon 01:30:42 PM 54.2833 -63.8000 203° Southwest 450 518 36,000  Level Gander Center
Mon 01:31:42 PM 54.1667 -63.8833 203° Southwest 450 518 36,000  Level Gander Center
Mon 01:32:42 PM 54.0667 -63.9667 206° Southwest 440 506 36,000  Level Gander Center
Mon 01:33:42 PM 53.9500 -64.0333 199° South 440 506 36,000  Level Gander Center
Mon 01:34:42 PM 53.8333 -64.1167 203° Southwest 440 506 36,000  Level Gander Center
Mon 01:35:42 PM 53.7167 -64.2000 203° Southwest 440 506 36,000  Level Gander Center
Mon 01:36:42 PM 53.6167 -64.2667 202° Southwest 440 506 36,000  Level Gander Center
Mon 01:37:42 PM 53.4833 -64.3500 200° South 440 506 36,000  Level Gander Center
Mon 01:38:42 PM 53.3667 -64.4167 199° South 440 506 36,000  Level Gander Center
Mon 01:39:42 PM 53.2500 -64.5000 203° Southwest 440 506 36,000  Level Gander Center
Mon 01:40:42 PM 53.1500 -64.5500 197° South 430 495 36,000  Level Gander Center
Mon 01:41:42 PM 53.0333 -64.6167 199° South 430 495 36,000  Level Gander Center
Mon 01:42:42 PM 52.9167 -64.7000 203° Southwest 430 495 36,000  Level Gander Center
Mon 01:43:42 PM 52.8167 -64.7667 202° Southwest 440 506 36,000  Level Gander Center
Mon 01:44:42 PM 52.6833 -64.8333 197° South 440 506 36,000  Level Gander Center
Mon 01:45:42 PM 52.5667 -64.9167 203° Southwest 440 506 36,000  Level Gander Center
Mon 01:46:42 PM 52.4667 -64.9833 202° Southwest 440 506 36,000  Level Gander Center
Mon 01:47:42 PM 52.3500 -65.0667 204° Southwest 440 506 36,000  Level Gander Center
Mon 01:48:42 PM 52.2333 -65.1333 199° South 440 506 36,000  Level Gander Center
Mon 01:49:42 PM 52.1333 -65.2000 202° Southwest 440 506 36,000  Level Gander Center
Mon 01:50:42 PM 52.0000 -65.2833 201° Southwest 440 506 36,000  Level Gander Center
Mon 01:51:42 PM 51.8833 -65.3500 199° South 430 495 36,000  Level Gander Center
Mon 01:52:42 PM 51.7833 -65.4000 197° South 440 506 36,000  Level Gander Center
Mon 01:53:42 PM 51.6667 -65.4667 200° South 440 506 36,000  Level Gander Center
Mon 01:54:42 PM 51.5500 -65.5333 200° South 430 495 36,000  Level Gander Center
Mon 01:55:42 PM 51.4500 -65.6000 203° Southwest 440 506 36,000  Level Gander Center
Mon 01:56:42 PM 51.3167 -65.6667 197° South 430 495 36,000  Level Gander Center
Mon 01:57:42 PM 51.2167 -65.7500 208° Southwest 430 495 36,000  Level Gander Center
Mon 01:58:42 PM 51.1000 -65.8167 200° South 440 506 36,000  Level Gander Center
Mon 02:00:42 PM 50.8667 -65.9000 193° South 440 506 36,000  Level Gander Center
Mon 02:01:42 PM 50.7500 -65.9167 185° South 440 506 36,000  Level Gander Center
Mon 02:02:42 PM 50.6333 -65.9167 180° South 430 495 36,000  Level Gander Center
Mon 02:03:42 PM 50.5167 -65.9833 200° South 430 495 36,000  Level Gander Center
Mon 02:04:42 PM 50.4000 -66.0667 204° Southwest 440 506 36,000  Level Gander Center
Mon 02:05:42 PM 50.2833 -66.1500 205° Southwest 440 506 36,000  Level Gander Center
Mon 02:06:42 PM 50.1833 -66.2500 213° Southwest 440 506 36,000  Level Gander Center
Mon 02:07:42 PM 50.0833 -66.3167 203° Southwest 450 518 36,000  Level Gander Center
Mon 02:08:42 PM 49.9333 -66.3833 196° South 450 518 36,000  Level Gander Center
Mon 02:09:42 PM 49.8333 -66.4500 203° Southwest 450 518 36,000  Level Gander Center
Mon 02:10:42 PM 49.7167 -66.5333 205° Southwest 450 518 36,000  Level Gander Center
Mon 02:11:42 PM 49.6000 -66.6000 200° South 450 518 36,000  Level Gander Center
Mon 02:12:42 PM 49.4667 -66.6667 198° South 450 518 36,000  Level Gander Center
Mon 02:13:42 PM 49.3500 -66.7333 200° South 450 518 36,000  Level Gander Center
Mon 02:14:42 PM 49.2500 -66.7833 198° South 450 518 36,000  Level Gander Center
Mon 02:15:42 PM 49.1333 -66.8500 201° Southwest 450 518 36,000  Level Gander Center
Mon 02:16:42 PM 49.0167 -66.9167 201° Southwest 450 518 36,000  Level Gander Center
Mon 02:17:42 PM 48.8833 -66.9833 198° South 450 518 36,000  Level Gander Center
Mon 02:18:42 PM 48.7833 -67.0500 204° Southwest 450 518 36,000  Level Gander Center
Mon 02:19:45 PM 48.6500 -67.1167 198° South 440 506 36,000  Level Moncton Center
Mon 02:20:45 PM 48.5333 -67.1833 201° Southwest 440 506 36,000  Level Moncton Center
Mon 02:26:35 PM 47.9340 -67.5000 201° Southwest 452 520 36,000  Level FlightAware
Mon 02:27:15 PM 47.8670 -67.5340 199° South 452 520 36,000  Level FlightAware
Mon 02:27:45 PM 47.9340 -67.5000 19° North 454 522 36,000  Level FlightAware
Mon 02:28:24 PM 47.8680 -67.5340 199° South 454 522 36,000  Level FlightAware
Mon 02:28:58 PM 47.8870 -67.5240 19° North 454 522 36,000  Level FlightAware
Mon 02:29:43 PM 47.4980 -67.7260 199° South 458 527 36,000  Level FlightAware
Mon 02:30:19 PM 47.4370 -67.7580 200° South 458 527 36,000  Level FlightAware
Mon 02:30:55 PM 47.3760 -67.7890 199° South 458 527 36,000  Level FlightAware
Mon 02:31:32 PM 47.3130 -67.8210 199° South 458 527 36,000  Level FlightAware
Mon 02:32:08 PM 47.2510 -67.8520 199° South 458 527 36,000  Level FlightAware
Mon 02:32:44 PM 47.1900 -67.8830 199° South 458 527 36,000  Level FlightAware
Mon 02:33:21 PM 47.1270 -67.9150 199° South 458 527 36,000  Level FlightAware
Mon 02:33:55 PM 47.0690 -67.9440 199° South 458 527 36,000  Level FlightAware
Mon 02:34:32 PM 47.0060 -67.9760 199° South 458 527 36,000  Level FlightAware
Mon 02:35:08 PM 46.9450 -68.0070 199° South 458 527 36,000  Level FlightAware
Mon 02:35:44 PM 46.8830 -68.0380 199° South 458 527 36,000  Level FlightAware
Mon 02:36:30 PM 46.8050 -68.0770 199° South 458 527 36,000  Level FlightAware
Mon 02:37:06 PM 46.7440 -68.1080 199° South 458 527 36,000  Level FlightAware
Mon 02:37:43 PM 46.6810 -68.1400 199° South 458 527 36,000  Level FlightAware
Mon 02:38:11 PM 46.4600 -68.2370 197° South 460 529 36,000  Level FlightAware
Mon 02:39:01 PM 46.3820 -68.3090 212° Southwest 460 529 36,000  Level FlightAware
Mon 02:39:36 PM 46.3100 -68.3720 211° Southwest 454 522 36,000  Level FlightAware
Mon 02:40:06 PM 46.2520 -68.4230 211° Southwest 455 524 36,000  Level FlightAware
Mon 02:40:36 PM 46.2040 -68.4660 212° Southwest 455 524 36,000  Level FlightAware
Mon 02:41:15 PM 46.1300 -68.5310 211° Southwest 462 532 36,000  Level FlightAware
Mon 02:41:45 PM 46.1300 -68.5310 211° Southwest 461 531 36,000  Level FlightAware
Mon 02:43:06 PM 46.0890 -68.5660 211° Southwest 461 531 36,000  Level FlightAware
Mon 02:43:48 PM 45.8450 -68.7810 212° Southwest 464 534 36,000  Level FlightAware
Mon 02:44:26 PM 45.7830 -68.8350 211° Southwest 463 533 36,000  Level FlightAware
Mon 02:44:50 PM 46.1300 -68.5310 31° Northeast 36,000  Level FlightAware
Mon 02:45:16 PM 45.6830 -68.9220 211° Southwest 463 533 36,000  Level FlightAware
Mon 02:45:48 PM 45.6260 -68.9710 211° Southwest 463 533 36,000  Level FlightAware
Mon 02:46:22 PM 45.5620 -69.0260 211° Southwest 465 535 36,000  Level FlightAware
Mon 02:47:00 PM 45.4910 -69.0870 211° Southwest 466 536 36,000  Level FlightAware
Mon 02:47:35 PM 45.4300 -69.1390 211° Southwest 466 536 36,000  Level FlightAware
Mon 02:48:11 PM 45.3620 -69.1980 211° Southwest 463 533 36,000  Level FlightAware
Mon 02:48:49 PM 45.2920 -69.2570 211° Southwest 462 532 36,000  Level FlightAware
Mon 02:49:22 PM 45.2320 -69.3090 211° Southwest 460 529 36,000  Level FlightAware
Mon 02:50:11 PM 45.1450 -69.3820 211° Southwest 457 526 36,000  Level FlightAware
Mon 02:50:53 PM 45.0660 -69.4480 211° Southwest 458 527 36,000  Level FlightAware
Mon 02:51:24 PM 45.0090 -69.4970 211° Southwest 460 529 36,000  Level FlightAware
Mon 02:51:59 PM 44.9450 -69.5510 211° Southwest 464 534 36,000  Level FlightAware
Mon 02:52:37 PM 44.8770 -69.6080 211° Southwest 464 534 36,000  Level FlightAware
Mon 02:53:14 PM 44.8060 -69.6670 211° Southwest 462 532 36,000  Level FlightAware
Mon 02:53:47 PM 44.7470 -69.7160 211° Southwest 460 529 36,000  Level FlightAware
Mon 02:54:21 PM 44.6840 -69.7680 210° Southwest 459 528 36,000  Level FlightAware
Mon 02:54:55 PM 44.6220 -69.8200 211° Southwest 459 528 36,000  Level FlightAware
Mon 02:55:29 PM 44.5600 -69.8710 210° Southwest 458 527 36,000  Level FlightAware
Mon 02:55:59 PM 44.5050 -69.9160 210° Southwest 458 527 36,000  Level FlightAware
Mon 02:56:45 PM 44.4200 -69.9860 210° Southwest 460 529 36,000  Level FlightAware
Mon 02:57:19 PM 44.3590 -70.0360 210° Southwest 461 531 36,000  Level FlightAware
Mon 02:57:49 PM 44.3030 -70.0820 210° Southwest 461 531 36,000  Level FlightAware
Mon 02:58:24 PM 44.2390 -70.1340 210° Southwest 459 528 36,000  Level FlightAware
Mon 02:59:00 PM 44.1730 -70.1880 210° Southwest 459 528 36,000  Level FlightAware
Mon 02:59:38 PM 44.1030 -70.2450 210° Southwest 465 535 36,000  Level FlightAware
Mon 03:00:14 PM 44.0380 -70.2970 210° Southwest 460 529 36,000  Level FlightAware
Mon 03:00:46 PM 43.9770 -70.3460 210° Southwest 459 528 36,000  Level FlightAware
Mon 03:01:22 PM 43.9110 -70.4000 211° Southwest 455 524 36,000  Level FlightAware
Mon 03:01:56 PM 43.8490 -70.4500 210° Southwest 459 528 36,000  Level FlightAware
Mon 03:02:32 PM 43.7830 -70.5020 210° Southwest 458 527 36,000  Level FlightAware
Mon 03:03:02 PM 43.7290 -70.5460 210° Southwest 457 526 36,000  Level FlightAware
Mon 03:03:42 PM 43.6550 -70.6040 210° Southwest 458 527 36,000  Level FlightAware
Mon 03:04:14 PM 43.5960 -70.6520 211° Southwest 459 528 36,000  Level FlightAware
Mon 03:04:52 PM 43.5280 -70.7060 210° Southwest 459 528 36,000  Level FlightAware
Mon 03:05:24 PM 43.4680 -70.7530 210° Southwest 459 528 36,000  Level FlightAware
Mon 03:06:00 PM 43.4010 -70.8060 210° Southwest 456 525 36,000  Level FlightAware
Mon 03:06:38 PM 43.3320 -70.8600 210° Southwest 453 521 36,000  Level FlightAware
Mon 03:07:14 PM 43.2670 -70.9110 210° Southwest 451 519 36,000  Level FlightAware
Mon 03:07:46 PM 43.2090 -70.9560 209° Southwest 450 518 36,000  Level FlightAware
Mon 03:08:22 PM 43.1450 -71.0070 210° Southwest 450 518 36,000  Level FlightAware
Mon 03:08:58 PM 43.0790 -71.0580 209° Southwest 449 517 36,000  Level FlightAware
Mon 03:09:30 PM 43.0200 -71.1040 210° Southwest 446 513 36,000  Level FlightAware
Mon 03:10:10 PM 42.9490 -71.1590 210° Southwest 445 512 36,000  Level FlightAware
Mon 03:10:44 PM 42.8900 -71.2050 210° Southwest 447 514 36,000  Level FlightAware
Mon 03:11:00 PM 42.8620 -71.2270 210° Southwest 448 516 36,000  Level FlightAware
Mon 03:12:05 PM 42.7660 -71.3010 210° Southwest 452 520 36,000  Level FlightAware
Mon 03:12:43 PM 42.6800 -71.3670 209° Southwest 452 520 36,000  Level FlightAware
Mon 03:13:14 PM 42.6180 -71.4150 210° Southwest 450 518 36,000  Level FlightAware
Mon 03:13:54 PM 42.5440 -71.4710 209° Southwest 450 518 36,000  Level FlightAware
Mon 03:14:24 PM 42.4900 -71.5120 209° Southwest 449 517 36,000  Level FlightAware
Mon 03:15:00 PM 42.4270 -71.5600 209° Southwest 448 516 36,000  Level FlightAware
Mon 03:15:36 PM 42.3600 -71.6110 209° Southwest 449 517 36,000  Level FlightAware
Mon 03:16:12 PM 42.2960 -71.6620 211° Southwest 445 512 36,000  Level FlightAware
Mon 03:16:44 PM 42.2420 -71.7150 216° Southwest 445 512 36,000  Level FlightAware
Mon 03:17:21 PM 42.1830 -71.7720 216° Southwest 447 514 36,000  Level FlightAware
Mon 03:17:58 PM 42.1190 -71.8340 216° Southwest 449 517 36,000  Level FlightAware
Mon 03:18:34 PM 42.0590 -71.8920 216° Southwest 449 517 36,000  Level FlightAware
Mon 03:19:06 PM 42.0030 -71.9460 216° Southwest 450 518 36,000  Level FlightAware
Mon 03:19:40 PM 41.9460 -72.0000 215° Southwest 450 518 36,000  Level FlightAware
Mon 03:19:54 PM 41.9210 -72.0240 216° Southwest 450 518 36,000  Level FlightAware
Mon 03:21:13 PM 41.8050 -72.1350 216° Southwest 441 507 36,000  Level FlightAware
Mon 03:21:49 PM 41.7310 -72.2050 215° Southwest 444 511 36,000  Level FlightAware
Mon 03:22:28 PM 41.6650 -72.2670 215° Southwest 444 511 36,000  Level FlightAware
Mon 03:23:05 PM 41.6030 -72.3270 216° Southwest 444 511 36,000  Level FlightAware
Mon 03:23:20 PM 41.5790 -72.3490 214° Southwest 445 512 36,000  Level FlightAware
Mon 03:24:37 PM 41.4470 -72.4730 215° Southwest 448 516 36,000  Level FlightAware
Mon 03:25:26 PM 41.3650 -72.5500 215° Southwest 452 520 36,000  Level FlightAware
Mon 03:25:58 PM 41.3070 -72.6040 215° Southwest 453 521 36,000  Level FlightAware
Mon 03:26:40 PM 41.2410 -72.6650 215° Southwest 453 521 36,000  Level FlightAware
Mon 03:27:16 PM 41.1810 -72.7210 215° Southwest 453 521 36,000  Level FlightAware
Mon 03:27:50 PM 41.1200 -72.7780 215° Southwest 455 524 36,000  Level FlightAware
Mon 03:28:28 PM 41.0550 -72.8380 215° Southwest 457 526 36,000  Level FlightAware
Mon 03:29:00 PM 40.9990 -72.8900 215° Southwest 457 526 36,000  Level FlightAware
Mon 03:29:41 PM 40.9280 -72.9550 215° Southwest 458 527 36,000  Level FlightAware
Mon 03:29:54 PM 40.8992 -72.9817 215° Southwest 458 527 36,000  Level FlightAware
Mon 03:30:38 PM 40.8222 -73.0524 215° Southwest 457 526 36,000  Level FlightAware
Mon 03:31:09 PM 40.7709 -73.0994 215° Southwest 458 527 36,000  Level FlightAware
Mon 03:31:39 PM 40.7166 -73.1490 215° Southwest 457 526 36,000  Level FlightAware
Mon 03:32:09 PM 40.6639 -73.1970 215° Southwest 457 526 36,000  Level FlightAware
Mon 03:32:41 PM 40.6093 -73.2465 215° Southwest 459 528 36,000  Level FlightAware
Mon 03:33:11 PM 40.5555 -73.2953 215° Southwest 461 531 36,000  Level FlightAware
Mon 03:33:48 PM 40.4920 -73.3531 215° Southwest 461 531 36,000  Level FlightAware
Mon 03:34:35 PM 40.4170 -73.4210 215° Southwest 458 527 36,000  Level FlightAware
Mon 03:34:56 PM 40.3740 -73.4597 214° Southwest 458 527 36,000  Level FlightAware
Mon 03:35:27 PM 40.3190 -73.5091 214° Southwest 461 531 36,000  Level FlightAware
Mon 03:36:00 PM 40.2611 -73.5610 214° Southwest 462 532 36,000  Level FlightAware
Mon 03:36:38 PM 40.1929 -73.6222 214° Southwest 465 535 36,000  Level FlightAware
Mon 03:37:12 PM 40.1339 -73.6750 214° Southwest 465 535 36,000  Level FlightAware
Mon 03:37:42 PM 40.0820 -73.7213 214° Southwest 468 539 36,000  Level FlightAware
Mon 03:38:14 PM 40.0223 -73.7745 214° Southwest 468 539 36,000  Level FlightAware
Mon 03:38:52 PM 39.9548 -73.8345 214° Southwest 468 539 36,000  Level FlightAware
Mon 03:39:22 PM 39.9005 -73.8828 214° Southwest 468 539 36,000  Level FlightAware
Mon 03:39:53 PM 39.8450 -73.9318 214° Southwest 468 539 36,000  Level FlightAware
Mon 03:40:23 PM 39.7911 -73.9793 214° Southwest 469 540 36,000  Level FlightAware
Mon 03:40:55 PM 39.7337 -74.0298 214° Southwest 469 540 36,000  Level FlightAware
Mon 03:41:32 PM 39.6689 -74.0869 214° Southwest 467 537 36,000  Level FlightAware
Mon 03:42:02 PM 39.6144 -74.1347 214° Southwest 467 537 36,000  Level FlightAware
Mon 03:42:43 PM 39.5407 -74.1993 214° Southwest 468 539 36,000  Level FlightAware
Mon 03:43:13 PM 39.4864 -74.2467 214° Southwest 469 540 36,000  Level FlightAware
Mon 03:43:44 PM 39.4317 -74.2944 214° Southwest 467 537 36,000  Level FlightAware
Mon 03:44:18 PM 39.3710 -74.3471 214° Southwest 466 536 36,000  Level FlightAware
Mon 03:44:48 PM 39.3168 -74.3942 214° Southwest 467 537 36,000  Level FlightAware
Mon 03:45:21 PM 39.2580 -74.4452 214° Southwest 467 537 36,000  Level FlightAware
Mon 03:45:55 PM 39.1977 -74.4974 214° Southwest 469 540 36,000  Level FlightAware
Mon 03:46:28 PM 39.1379 -74.5490 214° Southwest 471 542 36,000  Level FlightAware
Mon 03:46:58 PM 39.0827 -74.5966 214° Southwest 471 542 36,000  Level FlightAware
Mon 03:47:29 PM 39.0260 -74.6454 214° Southwest 471 542 36,000  Level FlightAware
Mon 03:48:00 PM 38.9709 -74.6927 214° Southwest 471 542 36,000  Level FlightAware
Mon 03:48:30 PM 38.9163 -74.7394 214° Southwest 472 543 36,000  Level FlightAware
Mon 03:49:10 PM 38.8432 -74.8018 214° Southwest 475 547 36,000  Level FlightAware
Mon 03:49:41 PM 38.7873 -74.8494 214° Southwest 476 548 36,000  Level FlightAware
Mon 03:50:12 PM 38.7306 -74.8976 214° Southwest 477 549 36,000  Level FlightAware
Mon 03:50:48 PM 38.6646 -74.9537 214° Southwest 475 547 36,000  Level FlightAware
Mon 03:51:19 PM 38.6072 -75.0023 213° Southwest 475 547 36,000  Level FlightAware
Mon 03:51:50 PM 38.5507 -75.0501 213° Southwest 473 544 36,000  Level FlightAware
Mon 03:52:33 PM 38.4719 -75.1165 213° Southwest 473 544 36,000  Level FlightAware
Mon 03:52:46 PM 38.4474 -75.1349 210° Southwest 482 555 36,000  Level FlightAware
Mon 03:53:18 PM 38.3852 -75.1777 208° Southwest 486 559 36,000  Level FlightAware
Mon 03:54:18 PM 38.2900 -75.2420 208° Southwest 484 557 36,000  Level FlightAware
Mon 03:54:47 PM 38.2110 -75.3000 210° Southwest 478 550 36,000  Level FlightAware
Mon 03:55:06 PM 38.1731 -75.3262 209° Southwest 477 549 36,000  Level FlightAware
Mon 03:55:39 PM 38.1112 -75.3700 209° Southwest 476 548 36,000  Level FlightAware
Mon 03:56:13 PM 38.0454 -75.4162 209° Southwest 476 548 36,000  Level FlightAware
Mon 03:56:44 PM 38.0020 -75.4460 208° Southwest 475 547 36,000  Level FlightAware
Mon 03:57:18 PM 37.9206 -75.5037 209° Southwest 476 548 36,000  Level FlightAware
Mon 03:57:49 PM 37.8607 -75.5457 209° Southwest 478 550 36,000  Level FlightAware
Mon 03:58:23 PM 37.7962 -75.5907 209° Southwest 478 550 36,000  Level FlightAware
Mon 03:58:58 PM 37.7266 -75.6392 209° Southwest 478 550 36,000  Level FlightAware
Mon 03:59:28 PM 37.6678 -75.6802 209° Southwest 476 548 36,000  Level FlightAware
Mon 04:02:27 PM 37.3266 -75.9161 209° Southwest 471 542 36,000  Level FlightAware
Mon 04:02:57 PM 37.2693 -75.9554 209° Southwest 468 539 36,000  Level FlightAware
Mon 04:03:27 PM 37.2125 -75.9944 209° Southwest 465 535 36,000  Level FlightAware
Mon 04:03:59 PM 37.1524 -76.0355 209° Southwest 465 535 36,000  Level FlightAware
Mon 04:04:45 PM 37.0634 -76.0962 209° Southwest 467 537 36,000  Level FlightAware
Mon 04:05:16 PM 37.0051 -76.1360 209° Southwest 469 540 36,000  Level FlightAware
Mon 04:05:54 PM 36.9331 -76.1850 209° Southwest 470 541 36,000  Level FlightAware
Mon 04:06:29 PM 36.8670 -76.2298 208° Southwest 471 542 36,000  Level FlightAware
Mon 04:07:00 PM 36.8067 -76.2707 209° Southwest 470 541 36,000  Level FlightAware
Mon 04:08:00 PM 36.6940 -76.3470 209° Southwest 468 539 36,000  Level FlightAware
Mon 04:08:35 PM 36.6360 -76.3850 208° Southwest 468 539 36,000  Level FlightAware
Mon 04:09:11 PM 36.5780 -76.4240 208° Southwest 468 539 36,000  Level FlightAware
Mon 04:09:59 PM 36.4760 -76.4930 209° Southwest 467 537 36,000  Level FlightAware
Mon 04:10:35 PM 36.3980 -76.5450 208° Southwest 470 541 36,000  Level FlightAware
Mon 04:11:00 PM 36.3580 -76.5720 209° Southwest 470 541 36,000  Level FlightAware
Mon 04:11:39 PM 36.2940 -76.6140 208° Southwest 470 541 36,000  Level FlightAware
Mon 04:12:18 PM 36.2300 -76.6560 208° Southwest 470 541 36,000  Level FlightAware
Mon 04:12:55 PM 36.1700 -76.6960 208° Southwest 470 541 36,000  Level FlightAware
Mon 04:13:31 PM 36.1110 -76.7350 208° Southwest 470 541 36,000  Level FlightAware
Mon 04:14:08 PM 36.0510 -76.7740 208° Southwest 470 541 36,000  Level FlightAware
Mon 04:14:44 PM 35.9920 -76.8130 208° Southwest 470 541 36,000  Level FlightAware
Mon 04:15:20 PM 35.9330 -76.8520 208° Southwest 470 541 36,000  Level FlightAware
Mon 04:15:54 PM 35.8780 -76.8880 208° Southwest 470 541 36,000  Level FlightAware
Mon 04:16:30 PM 35.8190 -76.9270 208° Southwest 470 541 36,000  Level FlightAware
Mon 04:17:06 PM 35.7600 -76.9650 208° Southwest 470 541 36,000  Level FlightAware
Mon 04:17:54 PM 35.6820 -77.0160 208° Southwest 470 541 36,000  Level FlightAware
Mon 04:18:30 PM 35.6230 -77.0550 208° Southwest 470 541 36,000  Level FlightAware
Mon 04:19:06 PM 35.5640 -77.0930 208° Southwest 470 541 36,000  Level FlightAware
Mon 04:19:40 PM 35.5090 -77.1290 208° Southwest 470 541 36,000  Level FlightAware
Mon 04:20:34 PM 35.4210 -77.1870 208° Southwest 470 541 36,000  Level FlightAware
Mon 04:21:05 PM 35.2192 -77.3208 208° Southwest 466 536 36,000  Level Washington Center
Mon 04:22:03 PM 35.1056 -77.3922 207° Southwest 466 536 36,000  Level Washington Center
Mon 04:23:04 PM 34.9917 -77.4656 208° Southwest 466 536 36,000  Level Washington Center
Mon 04:24:05 PM 34.8758 -77.5389 207° Southwest 466 536 36,000  Level Washington Center
Mon 04:25:06 PM 34.7514 -77.6269 210° Southwest 466 536 36,000  Level Washington Center
Mon 04:30:44 PM 34.0440 -77.9640 210° Southwest 486 559 36,000  Level FlightAware
Mon 04:31:19 PM 33.9720 -77.9850 194° South 486 559 36,000  Level FlightAware
Mon 04:32:02 PM 33.8850 -78.0090 193° South 486 559 36,000  Level FlightAware
Mon 04:32:34 PM 33.8050 -78.0330 194° South 484 557 36,000  Level FlightAware
Mon 04:33:09 PM 33.7340 -78.0530 193° South 484 557 36,000  Level FlightAware
Mon 04:33:51 PM 33.6530 -78.0760 193° South 484 557 36,000  Level FlightAware
Mon 04:34:28 PM 33.6510 -78.0770 203° Southwest 485 558 36,000  Level FlightAware
Mon 04:35:00 PM 33.4960 -78.1210 193° South 485 558 36,000  Level FlightAware
Mon 04:35:39 PM 33.4000 -78.1490 194° South 488 562 36,000  Level FlightAware
Mon 04:36:14 PM 33.3370 -78.1670 193° South 488 562 36,000  Level FlightAware
Mon 04:36:49 PM 33.2460 -78.1930 193° South 488 562 36,000  Level FlightAware
Mon 04:37:25 PM 33.1730 -78.2140 194° South 487 560 36,000  Level FlightAware
Mon 04:38:02 PM 33.1040 -78.2330 193° South 487 560 36,000  Level FlightAware
Mon 04:38:39 PM 33.0110 -78.2590 193° South 484 557 36,000  Level FlightAware
Mon 04:39:14 PM 32.9330 -78.2810 193° South 485 558 36,000  Level FlightAware
Mon 04:39:49 PM 32.8520 -78.3040 193° South 486 559 36,000  Level FlightAware
Mon 04:40:24 PM 32.8030 -78.3180 194° South 485 558 36,000  Level FlightAware
Mon 04:40:59 PM 32.7000 -78.3470 193° South 485 558 36,000  Level FlightAware
Mon 04:41:39 PM 32.6120 -78.3720 193° South 485 558 36,000  Level FlightAware
Mon 04:42:14 PM 32.5380 -78.3920 193° South 486 559 36,000  Level FlightAware
Mon 04:43:19 PM 32.3920 -78.4330 193° South 486 559 36,000  Level FlightAware
Mon 04:43:49 PM 32.3280 -78.4520 194° South 485 558 36,000  Level FlightAware
Mon 04:44:41 PM 32.2300 -78.4810 194° South 484 557 36,000  Level FlightAware
Mon 04:45:05 PM 32.1850 -78.4940 194° South 484 557 36,000  Level FlightAware
Mon 04:45:53 PM 32.0970 -78.5200 194° South 484 557 36,000  Level FlightAware
Mon 04:46:29 PM 32.0300 -78.5400 194° South 484 557 36,000  Level FlightAware
Mon 04:47:06 PM 31.9620 -78.5600 194° South 484 557 36,000  Level FlightAware
Mon 04:47:43 PM 31.8930 -78.5800 194° South 484 557 36,000  Level FlightAware
Mon 04:48:19 PM 31.8270 -78.5990 194° South 484 557 36,000  Level FlightAware
Mon 04:48:56 PM 31.7590 -78.6190 194° South 484 557 36,000  Level FlightAware
Mon 04:49:44 PM 31.6700 -78.6450 194° South 484 557 36,000  Level FlightAware
Mon 04:50:29 PM 31.4617 -78.6744 194° South 472 543 36,000  Level Jacksonville Center
Mon 04:51:29 PM 31.3261 -78.6733 180° South 484 557 36,000  Level Jacksonville Center
Mon 04:52:29 PM 31.1881 -78.6697 179° South 484 557 36,000  Level Jacksonville Center
Mon 04:53:29 PM 31.0564 -78.6611 177° South 489 563 36,000  Level Jacksonville Center
Mon 04:54:29 PM 30.9164 -78.6578 179° South 489 563 36,000 150 Level Jacksonville Center
Mon 04:55:29 PM 30.7847 -78.6539 179° South 489 563 36,300 500 Climbing Jacksonville Center
Mon 04:56:29 PM 30.6469 -78.6503 179° South 489 563 37,000 700 Climbing Jacksonville Center
Mon 04:57:29 PM 30.5131 -78.6467 179° South 494 568 37,700 581 Climbing Jacksonville Center
Mon 04:58:02 PM 30.4381 -78.6358 173° South 496 571 37,900 194 Climbing Miami Center
Mon 04:59:02 PM 30.3111 -78.6289 177° South 485 558 38,000 50 Climbing Miami Center
Mon 05:00:02 PM 30.1633 -78.6119 174° South 499 574 38,000  Level Miami Center
Mon 05:01:02 PM 30.0197 -78.5953 174° South 499 574 38,000  Level Miami Center
Mon 05:02:02 PM 29.8803 -78.5764 173° South 494 568 38,000  Level Miami Center
Mon 05:03:02 PM 29.7469 -78.5647 176° South 502 578 38,000  Level Miami Center
Mon 05:04:02 PM 29.6114 -78.5650 180° South 494 568 38,000  Level Miami Center
Mon 05:05:02 PM 29.4694 -78.5628 179° South 494 568 38,000  Level Miami Center
Mon 05:06:02 PM 29.3297 -78.5628 180° South 500 575 38,000  Level Miami Center
Mon 05:07:02 PM 29.1942 -78.5656 181° South 494 568 38,000  Level Miami Center
Mon 05:08:02 PM 29.0542 -78.5658 180° South 499 574 38,000  Level Miami Center
Mon 05:13:20 PM 28.3750 -78.7680 180° South 38,000  Level FlightAware
Mon 05:13:57 PM 28.3180 -78.7990 206° Southwest 479 551 38,000  Level FlightAware
Mon 05:14:33 PM 28.2560 -78.8310 204° Southwest 479 551 38,000  Level FlightAware
Mon 05:15:09 PM 28.1950 -78.8640 205° Southwest 479 551 38,000  Level FlightAware
Mon 05:16:01 PM 28.0530 -78.9430 206° Southwest 479 551 38,000  Level FlightAware
Mon 05:16:35 PM 27.9880 -78.9770 205° Southwest 477 549 38,000  Level FlightAware
Mon 05:17:23 PM 27.8870 -79.0320 206° Southwest 476 548 38,000  Level FlightAware
Mon 05:18:03 PM 27.8050 -79.0760 205° Southwest 478 550 38,000  Level FlightAware
Mon 05:18:40 PM 27.7380 -79.1110 205° Southwest 481 554 38,000  Level FlightAware
Mon 05:19:15 PM 27.6640 -79.1510 206° Southwest 479 551 38,000  Level FlightAware
Mon 05:19:50 PM 27.5930 -79.1890 205° Southwest 481 554 38,000  Level FlightAware
Mon 05:19:55 PM 27.5850 -79.1940 209° Southwest 481 554 38,000  Level FlightAware
Mon 05:20:45 PM 27.4830 -79.2480 205° Southwest 490 564 38,000  Level FlightAware
Mon 05:21:35 PM 27.3810 -79.3020 205° Southwest 484 557 38,000  Level FlightAware
Mon 05:22:06 PM 27.3140 -79.3380 206° Southwest 486 559 38,000  Level FlightAware
Mon 05:22:45 PM 27.2330 -79.3810 205° Southwest 484 557 38,000  Level FlightAware
Mon 05:22:55 PM 27.2140 -79.3910 205° Southwest 484 557 38,000  Level FlightAware
Mon 05:23:52 PM 27.0930 -79.4550 205° Southwest 486 559 38,000  Level FlightAware
Mon 05:24:29 PM 27.0180 -79.4940 205° Southwest 485 558 38,000  Level FlightAware
Mon 05:25:01 PM 26.9540 -79.5280 205° Southwest 486 559 38,000  Level FlightAware
Mon 05:25:44 PM 26.8630 -79.5760 205° Southwest 485 558 38,000  Level FlightAware
Mon 05:26:13 PM 26.8050 -79.6070 206° Southwest 487 560 38,000  Level FlightAware
Mon 05:26:49 PM 26.7300 -79.6420 203° Southwest 492 566 38,000  Level FlightAware
Mon 05:27:21 PM 26.6580 -79.6610 193° South 496 571 38,000  Level FlightAware
Mon 05:27:54 PM 26.5830 -79.6760 190° South 499 574 38,000  Level FlightAware
Mon 05:28:32 PM 26.4960 -79.6870 186° South 499 574 38,000  Level FlightAware
Mon 05:29:06 PM 26.4210 -79.6930 184° South 498 573 38,000  Level FlightAware
Mon 05:29:45 PM 26.3300 -79.7000 184° South 500 575 38,000  Level FlightAware
Mon 05:30:16 PM 26.2620 -79.7050 184° South 499 574 38,000  Level FlightAware
Mon 05:30:50 PM 26.1810 -79.7110 184° South 499 574 38,000  Level FlightAware
Mon 05:31:26 PM 26.0990 -79.7180 184° South 499 574 38,000  Level FlightAware
Mon 05:32:00 PM 26.0200 -79.7250 185° South 498 573 38,000  Level FlightAware
Mon 05:32:36 PM 25.9380 -79.7320 184° South 497 572 38,000  Level FlightAware
Mon 05:33:11 PM 25.8580 -79.7390 185° South 487 560 38,000  Level FlightAware
Mon 05:33:46 PM 25.7770 -79.7470 185° South 486 559 38,000  Level FlightAware
Mon 05:34:15 PM 25.7120 -79.7610 191° South 492 566 38,000  Level FlightAware
Mon 05:34:30 PM 25.6810 -79.7790 208° Southwest 491 565 38,000  Level FlightAware
Mon 05:34:50 PM 25.6470 -79.8120 221° Southwest 483 556 38,000  Level FlightAware
Mon 05:35:25 PM 25.6050 -79.8840 237° Southwest 487 560 38,000  Level FlightAware
Mon 05:36:00 PM 25.5680 -79.9630 243° Southwest 485 558 38,000  Level FlightAware
Mon 05:36:35 PM 25.5340 -80.0400 244° Southwest 485 558 38,000  Level FlightAware
Mon 05:37:10 PM 25.5010 -80.1200 245° Southwest 487 560 38,000  Level FlightAware
Mon 05:37:45 PM 25.4690 -80.2010 246° West 488 562 38,000  Level FlightAware
Mon 05:38:21 PM 25.4390 -80.2800 247° West 488 562 38,000  Level FlightAware
Mon 05:38:56 PM 25.4060 -80.3610 246° West 487 560 38,000  Level FlightAware
Mon 05:39:30 PM 25.3700 -80.4380 243° Southwest 486 559 38,000  Level FlightAware
Mon 05:39:56 PM 25.3380 -80.4880 235° Southwest 492 566 38,000  Level FlightAware
Mon 05:40:45 PM 25.2710 -80.5910 234° Southwest 485 558 38,000  Level FlightAware
Mon 05:41:21 PM 25.2260 -80.6610 235° Southwest 485 558 38,000  Level FlightAware
Mon 05:41:50 PM 25.1850 -80.7240 234° Southwest 485 558 38,000  Level FlightAware
Mon 05:42:31 PM 25.1400 -80.7950 235° Southwest 485 558 38,000 -600 Level FlightAware
Mon 05:43:00 PM 25.0930 -80.8660 234° Southwest 493 567 37,300 -1,200 Descending FlightAware
Mon 05:43:36 PM 25.0460 -80.9380 234° Southwest 496 571 36,700 -960 Descending FlightAware
Mon 05:44:15 PM 24.9940 -81.0180 234° Southwest 499 574 36,100 -943 Descending FlightAware
Mon 05:44:46 PM 24.9510 -81.0840 234° Southwest 503 579 35,600 -1,015 Descending FlightAware
Mon 05:45:20 PM 24.9050 -81.1540 234° Southwest 503 579 35,000 -1,043 Descending FlightAware
Mon 05:45:55 PM 24.8560 -81.2280 234° Southwest 497 572 34,400 -1,029 Descending FlightAware
Mon 05:46:30 PM 24.8100 -81.2990 234° Southwest 484 557 33,800 -1,183 Descending FlightAware
Mon 05:47:06 PM 24.7670 -81.3650 234° Southwest 484 557 33,000 -1,417 Descending FlightAware
Mon 05:47:42 PM 24.7180 -81.4390 234° Southwest 479 551 32,100 -1,543 Descending FlightAware
Mon 05:48:16 PM 24.6720 -81.5090 234° Southwest 475 547 31,200 -1,676 Descending FlightAware
Mon 05:48:50 PM 24.6270 -81.5770 234° Southwest 471 542 30,200 -1,457 Descending FlightAware
Mon 05:49:26 PM 24.5800 -81.6410 231° Southwest 457 526 29,500 -1,286 Descending FlightAware
Mon 05:50:00 PM 24.5250 -81.6900 219° Southwest 459 528 28,700 -1,543 Descending FlightAware
Mon 05:50:36 PM 24.4670 -81.7440 220° Southwest 452 520 27,700 -1,315 Descending FlightAware
Mon 05:51:13 PM 24.4020 -81.7970 217° Southwest 440 506 27,100 -1,235 Descending FlightAware
Mon 05:51:44 PM 24.3530 -81.8360 216° Southwest 435 501 26,300 -1,371 Descending FlightAware
Mon 05:52:23 PM 24.2880 -81.8860 215° Southwest 420 483 25,500 -1,216 Descending FlightAware
Mon 05:52:58 PM 24.2320 -81.9330 217° Southwest 409 471 24,800 -1,800 Descending FlightAware
Mon 05:53:33 PM 24.1760 -81.9700 211° Southwest 415 478 23,400 -2,400 Descending FlightAware
Mon 05:54:03 PM 24.1290 -82.0000 210° Southwest 425 489 22,200 -2,400 Descending FlightAware
Mon 05:54:53 PM 24.0410 -82.0570 211° Southwest 416 479 20,200 -2,259 Descending FlightAware
Mon 05:55:28 PM 23.9800 -82.0960 210° Southwest 412 474 19,000 -1,200 Descending FlightAware
Mon 05:56:13 PM 23.9150 -82.1370 210° Southwest 410 472 18,600 -1,161 Descending FlightAware
Mon 05:57:01 PM 23.8400 -82.1850 210° Southwest 410 472 17,200 -988 Descending FlightAware
Mon 05:57:38 PM 23.7880 -82.2170 209° Southwest 410 472 17,200  Level FlightAware
Mon 05:58:15 PM 23.7360 -82.2500 210° Southwest 410 472 17,200  Level FlightAware
Mon 05:58:48 PM 23.6900 -82.2790 210° Southwest 410 472 17,200  Level FlightAware
Mon 05:59:20 PM 23.6460 -82.3070 210° Southwest 410 472 17,200  Level FlightAware
Mon 05:59:55 PM 23.5970 -82.3380 210° Southwest 410 472 17,200  Level FlightAware
Mon 06:02:00 PM 23.3359 -82.3686 175° South  Level Estimated
Mon 06:03:00 PM 23.2106 -82.3833 180° South  Level Estimated
Mon 06:04:00 PM 23.0853 -82.3979 170° South  Level Estimated
Mon 06:05:00 PM 22.9891 -82.4091 180° South  Level Estimated
Mon 06:06:00 PM 22.9891 -82.4091 180° South  Level Estimated
Mon 06:07:00 PM 22.9891 -82.4091 180° South  Level Estimated
Mon 06:08:00 PM 22.9891 -82.4091 180° South  Level Estimated
Mon 06:09:00 PM 22.9891 -82.4091 180° South  Level Estimated
Mon 06:10:00 PM 22.9891 -82.4091 180° South  Level Estimated
Mon 06:11:00 PM 22.9891 -82.4091 180° South  Level Estimated
Mon 06:12:00 PM 22.9891 -82.4091 180° South  Level Estimated
Mon 06:13:00 PM 22.9891 -82.4091 180° South  Level Estimated
Mon 06:14:00 PM 22.9891 -82.4091 180° South  Level Estimated
Mon 06:15:00 PM 22.9891 -82.4091 180° South  Level Estimated
Mon 06:16:00 PM 22.9891 -82.4091 180° South  Level Estimated
Mon 06:17:00 PM 22.9891 -82.4091 180° South  Level Estimated
Mon 06:18:00 PM 22.9891 -82.4091 180° South  Level Estimated
Mon 06:19:00 PM 22.9891 -82.4091 180° South  Level Estimated
Mon 06:20:00 PM 22.9891 -82.4091 180° South  Level Estimated
Mon 06:21:00 PM 22.9891 -82.4091 180° South  Level Estimated
Mon 06:22:00 PM 22.9891 -82.4091 180° South  Level Estimated
Mon 06:23:00 PM 22.9891 -82.4091 180° South  Level Estimated
Mon 06:24:00 PM 22.9891 -82.4091 180° South  Level Estimated
Mon 06:25:00 PM 22.9891 -82.4091 180° South  Level Estimated
Mon 06:26:00 PM 22.9891 -82.4091 180° South  Level Estimated

Login

Don't have an account? Register now (free) for customized features, flight alerts, and more!